sensor_id;sensor_type;location;lat;lon;timestamp;P1;durP1;ratioP1;P2;durP2;ratioP2
80241;SDS011;69556;45.004;7.532;2023-11-21T00:00:03;36.25;;;21.83;;
80241;SDS011;69556;45.004;7.532;2023-11-21T00:02:35;34.10;;;19.73;;
80241;SDS011;69556;45.004;7.532;2023-11-21T00:05:01;32.17;;;19.70;;
80241;SDS011;69556;45.004;7.532;2023-11-21T00:07:28;32.47;;;19.73;;
80241;SDS011;69556;45.004;7.532;2023-11-21T00:09:53;25.52;;;18.83;;
80241;SDS011;69556;45.004;7.532;2023-11-21T00:12:20;31.95;;;19.35;;
80241;SDS011;69556;45.004;7.532;2023-11-21T00:14:46;28.23;;;19.27;;
80241;SDS011;69556;45.004;7.532;2023-11-21T00:17:11;31.17;;;20.17;;
80241;SDS011;69556;45.004;7.532;2023-11-21T00:19:36;32.70;;;20.50;;
80241;SDS011;69556;45.004;7.532;2023-11-21T00:22:02;35.78;;;20.30;;
80241;SDS011;69556;45.004;7.532;2023-11-21T00:24:27;35.63;;;19.20;;
80241;SDS011;69556;45.004;7.532;2023-11-21T00:26:53;35.80;;;18.97;;
80241;SDS011;69556;45.004;7.532;2023-11-21T00:29:18;36.38;;;18.30;;
80241;SDS011;69556;45.004;7.532;2023-11-21T00:31:44;31.33;;;17.88;;
80241;SDS011;69556;45.004;7.532;2023-11-21T00:34:11;27.35;;;18.08;;
80241;SDS011;69556;45.004;7.532;2023-11-21T00:36:36;32.90;;;19.67;;
80241;SDS011;69556;45.004;7.532;2023-11-21T00:39:02;30.77;;;18.73;;
80241;SDS011;69556;45.004;7.532;2023-11-21T00:41:28;30.73;;;18.23;;
80241;SDS011;69556;45.004;7.532;2023-11-21T00:43:54;34.72;;;20.42;;
80241;SDS011;69556;45.004;7.532;2023-11-21T00:46:20;32.42;;;20.10;;
80241;SDS011;69556;45.004;7.532;2023-11-21T00:48:45;34.42;;;18.70;;
80241;SDS011;69556;45.004;7.532;2023-11-21T00:51:11;38.33;;;20.23;;
80241;SDS011;69556;45.004;7.532;2023-11-21T00:53:36;31.17;;;20.23;;
80241;SDS011;69556;45.004;7.532;2023-11-21T00:56:01;33.47;;;20.17;;
80241;SDS011;69556;45.004;7.532;2023-11-21T00:58:27;33.08;;;20.00;;
80241;SDS011;69556;45.004;7.532;2023-11-21T01:00:53;31.85;;;19.63;;
80241;SDS011;69556;45.004;7.532;2023-11-21T01:03:18;27.97;;;19.47;;
80241;SDS011;69556;45.004;7.532;2023-11-21T01:05:44;32.15;;;20.38;;
80241;SDS011;69556;45.004;7.532;2023-11-21T01:08:10;31.83;;;19.58;;
80241;SDS011;69556;45.004;7.532;2023-11-21T01:10:36;35.97;;;19.52;;
80241;SDS011;69556;45.004;7.532;2023-11-21T01:13:02;32.65;;;21.35;;
80241;SDS011;69556;45.004;7.532;2023-11-21T01:15:30;33.58;;;19.35;;
80241;SDS011;69556;45.004;7.532;2023-11-21T01:17:56;30.45;;;20.00;;
80241;SDS011;69556;45.004;7.532;2023-11-21T01:20:21;32.37;;;20.53;;
80241;SDS011;69556;45.004;7.532;2023-11-21T01:22:46;32.57;;;20.73;;
80241;SDS011;69556;45.004;7.532;2023-11-21T01:25:14;36.42;;;22.33;;
80241;SDS011;69556;45.004;7.532;2023-11-21T01:27:41;32.92;;;20.00;;
80241;SDS011;69556;45.004;7.532;2023-11-21T01:30:07;31.60;;;21.10;;
80241;SDS011;69556;45.004;7.532;2023-11-21T01:32:34;35.47;;;20.65;;
80241;SDS011;69556;45.004;7.532;2023-11-21T01:34:59;29.92;;;20.00;;
80241;SDS011;69556;45.004;7.532;2023-11-21T01:37:25;35.63;;;21.67;;
80241;SDS011;69556;45.004;7.532;2023-11-21T01:39:52;31.95;;;20.58;;
80241;SDS011;69556;45.004;7.532;2023-11-21T01:42:21;38.58;;;20.45;;
80241;SDS011;69556;45.004;7.532;2023-11-21T01:44:47;33.25;;;20.17;;
80241;SDS011;69556;45.004;7.532;2023-11-21T01:47:12;28.60;;;19.90;;
80241;SDS011;69556;45.004;7.532;2023-11-21T01:49:39;34.63;;;21.63;;
80241;SDS011;69556;45.004;7.532;2023-11-21T01:52:04;33.55;;;21.25;;
80241;SDS011;69556;45.004;7.532;2023-11-21T01:54:31;38.90;;;23.25;;
80241;SDS011;69556;45.004;7.532;2023-11-21T01:57:00;30.35;;;20.15;;
80241;SDS011;69556;45.004;7.532;2023-11-21T01:59:34;36.33;;;22.60;;
80241;SDS011;69556;45.004;7.532;2023-11-21T02:02:02;35.63;;;20.05;;
80241;SDS011;69556;45.004;7.532;2023-11-21T02:04:30;37.60;;;20.58;;
80241;SDS011;69556;45.004;7.532;2023-11-21T02:06:56;32.97;;;21.30;;
80241;SDS011;69556;45.004;7.532;2023-11-21T02:09:25;35.42;;;20.88;;
80241;SDS011;69556;45.004;7.532;2023-11-21T02:11:52;32.92;;;19.73;;
80241;SDS011;69556;45.004;7.532;2023-11-21T02:14:19;32.92;;;20.17;;
80241;SDS011;69556;45.004;7.532;2023-11-21T02:16:46;31.10;;;19.88;;
80241;SDS011;69556;45.004;7.532;2023-11-21T02:19:14;30.33;;;20.67;;
80241;SDS011;69556;45.004;7.532;2023-11-21T02:21:45;30.00;;;21.55;;
80241;SDS011;69556;45.004;7.532;2023-11-21T02:24:10;38.60;;;21.40;;
80241;SDS011;69556;45.004;7.532;2023-11-21T02:26:36;39.57;;;22.33;;
80241;SDS011;69556;45.004;7.532;2023-11-21T02:29:01;38.10;;;21.73;;
80241;SDS011;69556;45.004;7.532;2023-11-21T02:33:55;37.17;;;23.75;;
80241;SDS011;69556;45.004;7.532;2023-11-21T02:36:20;39.47;;;21.60;;
80241;SDS011;69556;45.004;7.532;2023-11-21T02:38:46;37.28;;;22.15;;
80241;SDS011;69556;45.004;7.532;2023-11-21T02:41:12;38.00;;;20.85;;
80241;SDS011;69556;45.004;7.532;2023-11-21T02:43:38;36.08;;;23.10;;
80241;SDS011;69556;45.004;7.532;2023-11-21T02:46:03;39.05;;;23.05;;
80241;SDS011;69556;45.004;7.532;2023-11-21T02:48:29;39.25;;;22.88;;
80241;SDS011;69556;45.004;7.532;2023-11-21T02:50:55;33.65;;;22.52;;
80241;SDS011;69556;45.004;7.532;2023-11-21T02:53:21;35.70;;;21.38;;
80241;SDS011;69556;45.004;7.532;2023-11-21T02:55:46;38.33;;;23.30;;
80241;SDS011;69556;45.004;7.532;2023-11-21T02:58:11;38.63;;;23.42;;
80241;SDS011;69556;45.004;7.532;2023-11-21T03:00:37;34.95;;;22.42;;
80241;SDS011;69556;45.004;7.532;2023-11-21T03:03:02;36.00;;;22.60;;
80241;SDS011;69556;45.004;7.532;2023-11-21T03:05:29;37.65;;;22.00;;
80241;SDS011;69556;45.004;7.532;2023-11-21T03:07:54;34.67;;;21.95;;
80241;SDS011;69556;45.004;7.532;2023-11-21T03:10:20;41.17;;;24.48;;
80241;SDS011;69556;45.004;7.532;2023-11-21T03:12:45;36.22;;;22.10;;
80241;SDS011;69556;45.004;7.532;2023-11-21T03:15:11;37.85;;;22.98;;
80241;SDS011;69556;45.004;7.532;2023-11-21T03:17:36;33.70;;;22.50;;
80241;SDS011;69556;45.004;7.532;2023-11-21T03:20:02;34.75;;;22.08;;
80241;SDS011;69556;45.004;7.532;2023-11-21T03:22:28;36.60;;;24.92;;
80241;SDS011;69556;45.004;7.532;2023-11-21T03:24:54;35.17;;;21.45;;
80241;SDS011;69556;45.004;7.532;2023-11-21T03:27:19;34.83;;;23.87;;
80241;SDS011;69556;45.004;7.532;2023-11-21T03:29:44;41.67;;;22.93;;
80241;SDS011;69556;45.004;7.532;2023-11-21T03:32:11;32.17;;;22.08;;
80241;SDS011;69556;45.004;7.532;2023-11-21T03:34:41;38.85;;;21.20;;
80241;SDS011;69556;45.004;7.532;2023-11-21T03:37:19;40.20;;;25.35;;
80241;SDS011;69556;45.004;7.532;2023-11-21T03:39:45;41.22;;;23.20;;
80241;SDS011;69556;45.004;7.532;2023-11-21T03:42:11;38.38;;;23.70;;
80241;SDS011;69556;45.004;7.532;2023-11-21T03:44:36;33.17;;;24.17;;
80241;SDS011;69556;45.004;7.532;2023-11-21T03:47:01;40.33;;;23.10;;
80241;SDS011;69556;45.004;7.532;2023-11-21T03:49:27;37.80;;;24.37;;
80241;SDS011;69556;45.004;7.532;2023-11-21T03:51:54;37.88;;;24.67;;
80241;SDS011;69556;45.004;7.532;2023-11-21T03:54:19;36.95;;;22.52;;
80241;SDS011;69556;45.004;7.532;2023-11-21T03:56:45;40.88;;;24.95;;
80241;SDS011;69556;45.004;7.532;2023-11-21T03:59:10;36.90;;;25.00;;
80241;SDS011;69556;45.004;7.532;2023-11-21T04:01:36;37.90;;;23.55;;
80241;SDS011;69556;45.004;7.532;2023-11-21T04:04:02;40.33;;;26.03;;
80241;SDS011;69556;45.004;7.532;2023-11-21T04:06:27;44.90;;;25.85;;
80241;SDS011;69556;45.004;7.532;2023-11-21T04:08:52;40.00;;;23.65;;
80241;SDS011;69556;45.004;7.532;2023-11-21T04:11:18;38.25;;;25.48;;
80241;SDS011;69556;45.004;7.532;2023-11-21T04:13:43;39.03;;;25.40;;
80241;SDS011;69556;45.004;7.532;2023-11-21T04:16:09;40.30;;;25.50;;
80241;SDS011;69556;45.004;7.532;2023-11-21T04:18:37;38.67;;;25.52;;
80241;SDS011;69556;45.004;7.532;2023-11-21T04:21:03;38.10;;;24.50;;
80241;SDS011;69556;45.004;7.532;2023-11-21T04:23:29;39.30;;;25.58;;
80241;SDS011;69556;45.004;7.532;2023-11-21T04:25:56;38.45;;;24.15;;
80241;SDS011;69556;45.004;7.532;2023-11-21T04:28:22;32.10;;;21.70;;
80241;SDS011;69556;45.004;7.532;2023-11-21T04:30:51;37.85;;;24.42;;
80241;SDS011;69556;45.004;7.532;2023-11-21T04:33:17;42.28;;;23.48;;
80241;SDS011;69556;45.004;7.532;2023-11-21T04:35:42;40.30;;;23.92;;
80241;SDS011;69556;45.004;7.532;2023-11-21T04:38:07;41.33;;;25.73;;
80241;SDS011;69556;45.004;7.532;2023-11-21T04:40:33;43.40;;;25.13;;
80241;SDS011;69556;45.004;7.532;2023-11-21T04:42:58;43.20;;;23.35;;
80241;SDS011;69556;45.004;7.532;2023-11-21T04:45:23;41.88;;;27.20;;
80241;SDS011;69556;45.004;7.532;2023-11-21T04:47:49;36.60;;;24.00;;
80241;SDS011;69556;45.004;7.532;2023-11-21T04:50:14;39.43;;;23.13;;
80241;SDS011;69556;45.004;7.532;2023-11-21T04:52:39;41.90;;;26.60;;
80241;SDS011;69556;45.004;7.532;2023-11-21T04:55:05;40.20;;;26.67;;
80241;SDS011;69556;45.004;7.532;2023-11-21T04:57:34;46.67;;;26.55;;
80241;SDS011;69556;45.004;7.532;2023-11-21T05:00:00;43.83;;;25.75;;
80241;SDS011;69556;45.004;7.532;2023-11-21T05:02:25;45.70;;;25.63;;
80241;SDS011;69556;45.004;7.532;2023-11-21T05:04:50;43.33;;;23.60;;
80241;SDS011;69556;45.004;7.532;2023-11-21T05:07:16;46.90;;;24.27;;
80241;SDS011;69556;45.004;7.532;2023-11-21T05:09:42;39.53;;;25.37;;
80241;SDS011;69556;45.004;7.532;2023-11-21T05:12:09;42.13;;;23.73;;
80241;SDS011;69556;45.004;7.532;2023-11-21T05:14:35;40.38;;;24.15;;
80241;SDS011;69556;45.004;7.532;2023-11-21T05:17:00;41.73;;;25.17;;
80241;SDS011;69556;45.004;7.532;2023-11-21T05:19:26;39.50;;;24.60;;
80241;SDS011;69556;45.004;7.532;2023-11-21T05:21:52;41.45;;;24.77;;
80241;SDS011;69556;45.004;7.532;2023-11-21T05:24:17;44.72;;;25.95;;
80241;SDS011;69556;45.004;7.532;2023-11-21T05:26:42;42.13;;;26.43;;
80241;SDS011;69556;45.004;7.532;2023-11-21T05:29:08;43.87;;;26.00;;
80241;SDS011;69556;45.004;7.532;2023-11-21T05:31:35;50.58;;;27.40;;
80241;SDS011;69556;45.004;7.532;2023-11-21T05:34:01;42.67;;;26.90;;
80241;SDS011;69556;45.004;7.532;2023-11-21T05:36:26;43.72;;;26.27;;
80241;SDS011;69556;45.004;7.532;2023-11-21T05:38:52;43.17;;;26.10;;
80241;SDS011;69556;45.004;7.532;2023-11-21T05:41:17;39.38;;;24.58;;
80241;SDS011;69556;45.004;7.532;2023-11-21T05:43:42;40.95;;;25.88;;
80241;SDS011;69556;45.004;7.532;2023-11-21T05:46:08;43.20;;;27.95;;
80241;SDS011;69556;45.004;7.532;2023-11-21T05:48:34;42.72;;;25.25;;
80241;SDS011;69556;45.004;7.532;2023-11-21T05:51:01;43.45;;;26.08;;
80241;SDS011;69556;45.004;7.532;2023-11-21T05:53:27;45.40;;;28.10;;
80241;SDS011;69556;45.004;7.532;2023-11-21T05:55:53;49.70;;;26.10;;
80241;SDS011;69556;45.004;7.532;2023-11-21T05:58:18;39.80;;;25.60;;
80241;SDS011;69556;45.004;7.532;2023-11-21T06:00:43;40.78;;;26.90;;
80241;SDS011;69556;45.004;7.532;2023-11-21T06:03:09;44.85;;;27.50;;
80241;SDS011;69556;45.004;7.532;2023-11-21T06:05:34;43.67;;;27.88;;
80241;SDS011;69556;45.004;7.532;2023-11-21T06:08:00;52.95;;;26.73;;
80241;SDS011;69556;45.004;7.532;2023-11-21T06:10:26;42.13;;;26.08;;
80241;SDS011;69556;45.004;7.532;2023-11-21T06:12:53;48.05;;;24.95;;
80241;SDS011;69556;45.004;7.532;2023-11-21T06:15:18;40.10;;;24.02;;
80241;SDS011;69556;45.004;7.532;2023-11-21T06:17:45;40.90;;;23.45;;
80241;SDS011;69556;45.004;7.532;2023-11-21T06:20:17;44.20;;;26.40;;
80241;SDS011;69556;45.004;7.532;2023-11-21T06:22:43;42.80;;;24.15;;
80241;SDS011;69556;45.004;7.532;2023-11-21T06:25:10;49.25;;;26.55;;
80241;SDS011;69556;45.004;7.532;2023-11-21T06:27:38;42.95;;;26.35;;
80241;SDS011;69556;45.004;7.532;2023-11-21T06:30:05;46.58;;;27.20;;
80241;SDS011;69556;45.004;7.532;2023-11-21T06:32:31;38.70;;;24.58;;
80241;SDS011;69556;45.004;7.532;2023-11-21T06:34:57;42.97;;;26.13;;
80241;SDS011;69556;45.004;7.532;2023-11-21T06:37:26;48.38;;;26.65;;
80241;SDS011;69556;45.004;7.532;2023-11-21T06:39:52;52.30;;;29.30;;
80241;SDS011;69556;45.004;7.532;2023-11-21T06:42:18;40.67;;;26.15;;
80241;SDS011;69556;45.004;7.532;2023-11-21T06:44:46;46.03;;;27.98;;
80241;SDS011;69556;45.004;7.532;2023-11-21T06:47:13;48.38;;;27.10;;
80241;SDS011;69556;45.004;7.532;2023-11-21T06:49:38;42.80;;;24.90;;
80241;SDS011;69556;45.004;7.532;2023-11-21T06:52:04;45.77;;;25.60;;
80241;SDS011;69556;45.004;7.532;2023-11-21T06:54:32;46.67;;;25.48;;
80241;SDS011;69556;45.004;7.532;2023-11-21T06:56:58;42.25;;;26.13;;
80241;SDS011;69556;45.004;7.532;2023-11-21T06:59:23;45.15;;;28.95;;
80241;SDS011;69556;45.004;7.532;2023-11-21T07:01:49;47.60;;;29.98;;
80241;SDS011;69556;45.004;7.532;2023-11-21T07:04:15;47.38;;;28.48;;
80241;SDS011;69556;45.004;7.532;2023-11-21T07:06:40;49.73;;;28.47;;
80241;SDS011;69556;45.004;7.532;2023-11-21T07:09:06;51.03;;;27.45;;
80241;SDS011;69556;45.004;7.532;2023-11-21T07:11:34;46.33;;;28.58;;
80241;SDS011;69556;45.004;7.532;2023-11-21T07:14:00;56.42;;;30.58;;
80241;SDS011;69556;45.004;7.532;2023-11-21T07:16:32;54.65;;;28.95;;
80241;SDS011;69556;45.004;7.532;2023-11-21T07:18:59;54.15;;;29.98;;
80241;SDS011;69556;45.004;7.532;2023-11-21T07:21:25;52.22;;;29.15;;
80241;SDS011;69556;45.004;7.532;2023-11-21T07:23:50;50.03;;;27.97;;
80241;SDS011;69556;45.004;7.532;2023-11-21T07:26:15;54.20;;;29.43;;
80241;SDS011;69556;45.004;7.532;2023-11-21T07:28:41;53.83;;;28.30;;
80241;SDS011;69556;45.004;7.532;2023-11-21T07:31:06;49.27;;;28.17;;
80241;SDS011;69556;45.004;7.532;2023-11-21T07:33:31;47.60;;;28.73;;
80241;SDS011;69556;45.004;7.532;2023-11-21T07:35:57;48.53;;;26.07;;
80241;SDS011;69556;45.004;7.532;2023-11-21T07:38:22;50.50;;;28.97;;
80241;SDS011;69556;45.004;7.532;2023-11-21T07:40:48;47.97;;;27.10;;
80241;SDS011;69556;45.004;7.532;2023-11-21T07:43:13;47.28;;;25.50;;
80241;SDS011;69556;45.004;7.532;2023-11-21T07:45:38;52.17;;;27.70;;
80241;SDS011;69556;45.004;7.532;2023-11-21T07:48:04;48.80;;;29.23;;
80241;SDS011;69556;45.004;7.532;2023-11-21T07:50:30;49.22;;;26.20;;
80241;SDS011;69556;45.004;7.532;2023-11-21T07:52:55;49.38;;;28.05;;
80241;SDS011;69556;45.004;7.532;2023-11-21T07:55:22;61.83;;;31.83;;
80241;SDS011;69556;45.004;7.532;2023-11-21T07:57:48;59.80;;;29.35;;
80241;SDS011;69556;45.004;7.532;2023-11-21T08:00:13;52.13;;;29.60;;
80241;SDS011;69556;45.004;7.532;2023-11-21T08:02:40;52.47;;;28.10;;
80241;SDS011;69556;45.004;7.532;2023-11-21T08:05:11;49.33;;;28.77;;
80241;SDS011;69556;45.004;7.532;2023-11-21T08:07:37;48.65;;;28.13;;
80241;SDS011;69556;45.004;7.532;2023-11-21T08:10:03;49.35;;;30.13;;
80241;SDS011;69556;45.004;7.532;2023-11-21T08:12:30;50.80;;;29.05;;
80241;SDS011;69556;45.004;7.532;2023-11-21T08:14:55;50.95;;;27.88;;
80241;SDS011;69556;45.004;7.532;2023-11-21T08:17:21;56.25;;;33.10;;
80241;SDS011;69556;45.004;7.532;2023-11-21T08:19:46;57.63;;;31.58;;
80241;SDS011;69556;45.004;7.532;2023-11-21T08:22:14;54.78;;;29.38;;
80241;SDS011;69556;45.004;7.532;2023-11-21T08:24:41;56.03;;;33.20;;
80241;SDS011;69556;45.004;7.532;2023-11-21T08:27:06;51.38;;;30.92;;
80241;SDS011;69556;45.004;7.532;2023-11-21T08:29:32;53.15;;;31.55;;
80241;SDS011;69556;45.004;7.532;2023-11-21T08:31:58;55.28;;;31.42;;
80241;SDS011;69556;45.004;7.532;2023-11-21T08:34:24;57.97;;;30.58;;
80241;SDS011;69556;45.004;7.532;2023-11-21T08:36:50;56.38;;;31.50;;
80241;SDS011;69556;45.004;7.532;2023-11-21T08:39:16;60.17;;;32.38;;
80241;SDS011;69556;45.004;7.532;2023-11-21T08:41:43;52.55;;;29.17;;
80241;SDS011;69556;45.004;7.532;2023-11-21T08:44:09;50.47;;;30.37;;
80241;SDS011;69556;45.004;7.532;2023-11-21T08:46:34;56.60;;;35.40;;
80241;SDS011;69556;45.004;7.532;2023-11-21T08:49:01;63.83;;;34.00;;
80241;SDS011;69556;45.004;7.532;2023-11-21T08:51:27;61.13;;;31.77;;
80241;SDS011;69556;45.004;7.532;2023-11-21T08:53:52;52.90;;;33.28;;
80241;SDS011;69556;45.004;7.532;2023-11-21T08:56:18;51.35;;;28.70;;
80241;SDS011;69556;45.004;7.532;2023-11-21T08:58:45;51.63;;;31.88;;
80241;SDS011;69556;45.004;7.532;2023-11-21T09:01:11;54.25;;;31.65;;
80241;SDS011;69556;45.004;7.532;2023-11-21T09:03:37;55.38;;;31.42;;
80241;SDS011;69556;45.004;7.532;2023-11-21T09:06:02;52.87;;;31.67;;
80241;SDS011;69556;45.004;7.532;2023-11-21T09:08:28;56.08;;;31.98;;
80241;SDS011;69556;45.004;7.532;2023-11-21T09:10:54;55.10;;;33.33;;
80241;SDS011;69556;45.004;7.532;2023-11-21T09:13:19;56.92;;;31.02;;
80241;SDS011;69556;45.004;7.532;2023-11-21T09:15:45;54.13;;;30.93;;
80241;SDS011;69556;45.004;7.532;2023-11-21T09:18:14;55.25;;;30.63;;
80241;SDS011;69556;45.004;7.532;2023-11-21T09:20:40;60.47;;;33.30;;
80241;SDS011;69556;45.004;7.532;2023-11-21T09:23:05;54.88;;;29.35;;
80241;SDS011;69556;45.004;7.532;2023-11-21T09:25:32;56.55;;;32.33;;
80241;SDS011;69556;45.004;7.532;2023-11-21T09:27:57;50.97;;;30.00;;
80241;SDS011;69556;45.004;7.532;2023-11-21T09:30:23;53.85;;;31.27;;
80241;SDS011;69556;45.004;7.532;2023-11-21T09:32:49;58.58;;;31.58;;
80241;SDS011;69556;45.004;7.532;2023-11-21T09:35:15;58.72;;;31.77;;
80241;SDS011;69556;45.004;7.532;2023-11-21T09:37:43;54.25;;;31.63;;
80241;SDS011;69556;45.004;7.532;2023-11-21T09:40:10;56.17;;;33.22;;
80241;SDS011;69556;45.004;7.532;2023-11-21T09:42:39;60.47;;;32.78;;
80241;SDS011;69556;45.004;7.532;2023-11-21T09:47:59;57.97;;;32.45;;
80241;SDS011;69556;45.004;7.532;2023-11-21T09:50:26;62.97;;;34.03;;
80241;SDS011;69556;45.004;7.532;2023-11-21T09:55:41;59.72;;;37.33;;
80241;SDS011;69556;45.004;7.532;2023-11-21T09:58:09;59.30;;;35.05;;
80241;SDS011;69556;45.004;7.532;2023-11-21T10:00:37;53.78;;;35.90;;
80241;SDS011;69556;45.004;7.532;2023-11-21T10:03:08;57.88;;;32.85;;
80241;SDS011;69556;45.004;7.532;2023-11-21T10:05:34;55.40;;;32.03;;
80241;SDS011;69556;45.004;7.532;2023-11-21T10:08:00;58.83;;;34.47;;
80241;SDS011;69556;45.004;7.532;2023-11-21T10:10:26;89.70;;;33.83;;
80241;SDS011;69556;45.004;7.532;2023-11-21T10:15:23;60.35;;;27.75;;
80241;SDS011;69556;45.004;7.532;2023-11-21T10:17:52;66.80;;;30.30;;
80241;SDS011;69556;45.004;7.532;2023-11-21T10:20:20;53.72;;;26.45;;
80241;SDS011;69556;45.004;7.532;2023-11-21T10:22:46;48.88;;;31.00;;
80241;SDS011;69556;45.004;7.532;2023-11-21T10:25:12;49.38;;;32.13;;
80241;SDS011;69556;45.004;7.532;2023-11-21T10:27:41;49.50;;;31.40;;
80241;SDS011;69556;45.004;7.532;2023-11-21T10:30:08;50.00;;;32.50;;
80241;SDS011;69556;45.004;7.532;2023-11-21T10:32:41;50.95;;;30.10;;
80241;SDS011;69556;45.004;7.532;2023-11-21T10:35:08;53.35;;;32.63;;
80241;SDS011;69556;45.004;7.532;2023-11-21T10:37:37;56.92;;;32.05;;
80241;SDS011;69556;45.004;7.532;2023-11-21T10:40:05;58.25;;;35.53;;
80241;SDS011;69556;45.004;7.532;2023-11-21T10:42:37;63.63;;;39.45;;
80241;SDS011;69556;45.004;7.532;2023-11-21T10:45:03;54.30;;;34.53;;
80241;SDS011;69556;45.004;7.532;2023-11-21T10:47:34;53.45;;;33.88;;
80241;SDS011;69556;45.004;7.532;2023-11-21T10:50:01;61.38;;;35.58;;
80241;SDS011;69556;45.004;7.532;2023-11-21T10:52:27;63.33;;;34.25;;
80241;SDS011;69556;45.004;7.532;2023-11-21T10:54:52;60.17;;;33.35;;
80241;SDS011;69556;45.004;7.532;2023-11-21T10:57:18;63.67;;;36.38;;
80241;SDS011;69556;45.004;7.532;2023-11-21T10:59:47;62.20;;;37.03;;
80241;SDS011;69556;45.004;7.532;2023-11-21T11:02:23;63.97;;;35.35;;
80241;SDS011;69556;45.004;7.532;2023-11-21T11:04:53;67.95;;;38.15;;
80241;SDS011;69556;45.004;7.532;2023-11-21T11:07:20;51.05;;;28.15;;
80241;SDS011;69556;45.004;7.532;2023-11-21T11:09:49;51.92;;;26.08;;
80241;SDS011;69556;45.004;7.532;2023-11-21T11:12:15;43.97;;;24.08;;
80241;SDS011;69556;45.004;7.532;2023-11-21T11:14:43;44.20;;;24.08;;
80241;SDS011;69556;45.004;7.532;2023-11-21T11:17:09;61.90;;;33.00;;
80241;SDS011;69556;45.004;7.532;2023-11-21T11:19:35;56.60;;;33.15;;
80241;SDS011;69556;45.004;7.532;2023-11-21T11:25:50;62.80;;;35.53;;
80241;SDS011;69556;45.004;7.532;2023-11-21T11:39:02;64.82;;;34.45;;
80241;SDS011;69556;45.004;7.532;2023-11-21T11:41:31;64.07;;;35.40;;
80241;SDS011;69556;45.004;7.532;2023-11-21T11:44:02;71.80;;;36.20;;
80241;SDS011;69556;45.004;7.532;2023-11-21T11:46:40;63.33;;;34.40;;
80241;SDS011;69556;45.004;7.532;2023-11-21T11:49:24;64.47;;;33.60;;
80241;SDS011;69556;45.004;7.532;2023-11-21T11:55:05;61.88;;;32.67;;
80241;SDS011;69556;45.004;7.532;2023-11-21T11:57:35;64.63;;;36.10;;
80241;SDS011;69556;45.004;7.532;2023-11-21T12:02:49;62.75;;;33.65;;
80241;SDS011;69556;45.004;7.532;2023-11-21T12:05:17;62.15;;;33.30;;
80241;SDS011;69556;45.004;7.532;2023-11-21T12:07:47;60.58;;;35.67;;
80241;SDS011;69556;45.004;7.532;2023-11-21T12:10:20;67.60;;;35.78;;
80241;SDS011;69556;45.004;7.532;2023-11-21T12:12:49;63.05;;;32.72;;
80241;SDS011;69556;45.004;7.532;2023-11-21T12:17:44;60.28;;;34.92;;
80241;SDS011;69556;45.004;7.532;2023-11-21T12:20:13;57.17;;;31.67;;
80241;SDS011;69556;45.004;7.532;2023-11-21T12:25:13;57.90;;;33.47;;
80241;SDS011;69556;45.004;7.532;2023-11-21T12:27:48;64.20;;;35.75;;
80241;SDS011;69556;45.004;7.532;2023-11-21T12:30:15;59.67;;;35.17;;
80241;SDS011;69556;45.004;7.532;2023-11-21T12:32:42;65.05;;;33.95;;
80241;SDS011;69556;45.004;7.532;2023-11-21T12:35:09;70.32;;;38.15;;
80241;SDS011;69556;45.004;7.532;2023-11-21T12:37:38;68.72;;;36.28;;
80241;SDS011;69556;45.004;7.532;2023-11-21T12:40:05;72.38;;;37.97;;
80241;SDS011;69556;45.004;7.532;2023-11-21T12:42:32;69.97;;;38.30;;
80241;SDS011;69556;45.004;7.532;2023-11-21T12:45:08;62.80;;;35.38;;
80241;SDS011;69556;45.004;7.532;2023-11-21T12:47:39;62.85;;;35.10;;
80241;SDS011;69556;45.004;7.532;2023-11-21T12:50:05;61.20;;;35.03;;
80241;SDS011;69556;45.004;7.532;2023-11-21T12:52:32;78.85;;;42.33;;
80241;SDS011;69556;45.004;7.532;2023-11-21T12:54:57;70.03;;;40.80;;
80241;SDS011;69556;45.004;7.532;2023-11-21T12:57:26;69.38;;;37.38;;
80241;SDS011;69556;45.004;7.532;2023-11-21T12:59:56;64.95;;;38.13;;
80241;SDS011;69556;45.004;7.532;2023-11-21T13:02:22;76.43;;;44.13;;
80241;SDS011;69556;45.004;7.532;2023-11-21T13:04:51;69.82;;;40.90;;
80241;SDS011;69556;45.004;7.532;2023-11-21T13:07:18;62.92;;;35.33;;
80241;SDS011;69556;45.004;7.532;2023-11-21T13:09:45;68.55;;;38.28;;
80241;SDS011;69556;45.004;7.532;2023-11-21T13:12:10;62.45;;;35.08;;
80241;SDS011;69556;45.004;7.532;2023-11-21T13:14:37;61.60;;;32.67;;
80241;SDS011;69556;45.004;7.532;2023-11-21T13:17:05;61.53;;;33.85;;
80241;SDS011;69556;45.004;7.532;2023-11-21T13:19:30;69.57;;;35.60;;
80241;SDS011;69556;45.004;7.532;2023-11-21T13:21:56;67.57;;;35.60;;
80241;SDS011;69556;45.004;7.532;2023-11-21T13:24:21;66.70;;;33.03;;
80241;SDS011;69556;45.004;7.532;2023-11-21T13:26:46;75.25;;;44.50;;
80241;SDS011;69556;45.004;7.532;2023-11-21T13:29:12;63.28;;;35.08;;
80241;SDS011;69556;45.004;7.532;2023-11-21T13:31:38;72.85;;;36.00;;
80241;SDS011;69556;45.004;7.532;2023-11-21T13:34:04;62.45;;;35.20;;
80241;SDS011;69556;45.004;7.532;2023-11-21T13:36:33;54.50;;;31.60;;
80241;SDS011;69556;45.004;7.532;2023-11-21T13:39:00;63.97;;;34.75;;
80241;SDS011;69556;45.004;7.532;2023-11-21T13:41:32;68.20;;;37.13;;
80241;SDS011;69556;45.004;7.532;2023-11-21T13:43:58;60.17;;;33.63;;
80241;SDS011;69556;45.004;7.532;2023-11-21T13:49:16;59.78;;;32.42;;
80241;SDS011;69556;45.004;7.532;2023-11-21T13:51:42;58.47;;;32.35;;
80241;SDS011;69556;45.004;7.532;2023-11-21T13:54:09;58.10;;;33.42;;
80241;SDS011;69556;45.004;7.532;2023-11-21T13:56:35;63.92;;;32.10;;
80241;SDS011;69556;45.004;7.532;2023-11-21T13:59:02;60.08;;;33.53;;
80241;SDS011;69556;45.004;7.532;2023-11-21T14:01:38;56.22;;;32.40;;
80241;SDS011;69556;45.004;7.532;2023-11-21T14:04:19;64.03;;;37.38;;
80241;SDS011;69556;45.004;7.532;2023-11-21T14:06:56;67.25;;;36.90;;
80241;SDS011;69556;45.004;7.532;2023-11-21T14:09:23;55.35;;;33.58;;
80241;SDS011;69556;45.004;7.532;2023-11-21T14:11:58;58.72;;;31.63;;
80241;SDS011;69556;45.004;7.532;2023-11-21T14:14:25;62.03;;;32.85;;
80241;SDS011;69556;45.004;7.532;2023-11-21T14:16:52;54.38;;;31.70;;
80241;SDS011;69556;45.004;7.532;2023-11-21T14:19:18;69.65;;;37.65;;
80241;SDS011;69556;45.004;7.532;2023-11-21T14:21:44;58.35;;;33.45;;
80241;SDS011;69556;45.004;7.532;2023-11-21T14:24:11;56.38;;;33.33;;
80241;SDS011;69556;45.004;7.532;2023-11-21T14:26:42;55.22;;;32.75;;
80241;SDS011;69556;45.004;7.532;2023-11-21T14:29:11;58.35;;;34.65;;
80241;SDS011;69556;45.004;7.532;2023-11-21T14:31:39;53.28;;;33.67;;
80241;SDS011;69556;45.004;7.532;2023-11-21T14:34:05;51.90;;;32.10;;
80241;SDS011;69556;45.004;7.532;2023-11-21T14:36:32;60.45;;;35.20;;
80241;SDS011;69556;45.004;7.532;2023-11-21T14:39:04;56.28;;;32.03;;
80241;SDS011;69556;45.004;7.532;2023-11-21T14:41:46;55.70;;;32.88;;
80241;SDS011;69556;45.004;7.532;2023-11-21T14:44:11;55.20;;;32.67;;
80241;SDS011;69556;45.004;7.532;2023-11-21T14:46:38;61.35;;;33.03;;
80241;SDS011;69556;45.004;7.532;2023-11-21T14:49:05;56.33;;;33.17;;
80241;SDS011;69556;45.004;7.532;2023-11-21T14:51:59;63.25;;;32.20;;
80241;SDS011;69556;45.004;7.532;2023-11-21T14:54:26;59.55;;;35.38;;
80241;SDS011;69556;45.004;7.532;2023-11-21T14:57:13;60.33;;;34.80;;